sensor_id;sensor_type;location;lat;lon;timestamp;P1;durP1;ratioP1;P2;durP2;ratioP2
20449;SDS011;10384;51.940;8.432;2024-03-22T00:00:32;40.97;;;14.27;;
20449;SDS011;10384;51.940;8.432;2024-03-22T00:02:58;39.77;;;14.17;;
20449;SDS011;10384;51.940;8.432;2024-03-22T00:05:24;42.00;;;15.40;;
20449;SDS011;10384;51.940;8.432;2024-03-22T00:07:49;41.50;;;15.10;;
20449;SDS011;10384;51.940;8.432;2024-03-22T00:10:16;44.77;;;15.43;;
20449;SDS011;10384;51.940;8.432;2024-03-22T00:12:42;42.17;;;15.57;;
20449;SDS011;10384;51.940;8.432;2024-03-22T00:15:07;39.63;;;14.23;;
20449;SDS011;10384;51.940;8.432;2024-03-22T00:17:33;38.47;;;14.73;;
20449;SDS011;10384;51.940;8.432;2024-03-22T00:20:00;41.33;;;14.90;;
20449;SDS011;10384;51.940;8.432;2024-03-22T00:22:26;42.13;;;14.73;;
20449;SDS011;10384;51.940;8.432;2024-03-22T00:24:52;39.57;;;15.20;;
20449;SDS011;10384;51.940;8.432;2024-03-22T00:27:18;41.37;;;15.17;;
20449;SDS011;10384;51.940;8.432;2024-03-22T00:29:44;38.30;;;14.77;;
20449;SDS011;10384;51.940;8.432;2024-03-22T00:32:10;39.33;;;15.33;;
20449;SDS011;10384;51.940;8.432;2024-03-22T00:34:36;44.53;;;15.97;;
20449;SDS011;10384;51.940;8.432;2024-03-22T00:37:02;41.77;;;14.63;;
20449;SDS011;10384;51.940;8.432;2024-03-22T00:39:28;40.57;;;14.73;;
20449;SDS011;10384;51.940;8.432;2024-03-22T00:41:54;39.53;;;15.23;;
20449;SDS011;10384;51.940;8.432;2024-03-22T00:44:20;39.97;;;15.07;;
20449;SDS011;10384;51.940;8.432;2024-03-22T00:46:46;41.73;;;15.53;;
20449;SDS011;10384;51.940;8.432;2024-03-22T00:49:12;40.20;;;15.33;;
20449;SDS011;10384;51.940;8.432;2024-03-22T00:51:38;42.43;;;15.27;;
20449;SDS011;10384;51.940;8.432;2024-03-22T00:54:04;43.23;;;16.23;;
20449;SDS011;10384;51.940;8.432;2024-03-22T00:56:30;37.57;;;14.47;;
20449;SDS011;10384;51.940;8.432;2024-03-22T00:58:56;40.23;;;14.87;;
20449;SDS011;10384;51.940;8.432;2024-03-22T01:01:22;44.00;;;15.23;;
20449;SDS011;10384;51.940;8.432;2024-03-22T01:03:48;43.40;;;15.57;;
20449;SDS011;10384;51.940;8.432;2024-03-22T01:06:14;45.27;;;15.37;;
20449;SDS011;10384;51.940;8.432;2024-03-22T01:08:40;38.30;;;13.73;;
20449;SDS011;10384;51.940;8.432;2024-03-22T01:11:06;40.67;;;14.90;;
20449;SDS011;10384;51.940;8.432;2024-03-22T01:13:32;35.33;;;13.37;;
20449;SDS011;10384;51.940;8.432;2024-03-22T01:15:58;39.97;;;14.47;;
20449;SDS011;10384;51.940;8.432;2024-03-22T01:18:24;39.17;;;14.27;;
20449;SDS011;10384;51.940;8.432;2024-03-22T01:20:50;40.57;;;14.60;;
20449;SDS011;10384;51.940;8.432;2024-03-22T01:23:16;40.90;;;14.80;;
20449;SDS011;10384;51.940;8.432;2024-03-22T01:25:44;36.37;;;13.77;;
20449;SDS011;10384;51.940;8.432;2024-03-22T01:28:10;40.80;;;14.00;;
20449;SDS011;10384;51.940;8.432;2024-03-22T01:30:37;43.87;;;15.77;;
20449;SDS011;10384;51.940;8.432;2024-03-22T01:33:03;43.13;;;14.50;;
20449;SDS011;10384;51.940;8.432;2024-03-22T01:35:29;37.73;;;14.23;;
20449;SDS011;10384;51.940;8.432;2024-03-22T01:37:55;39.07;;;13.77;;
20449;SDS011;10384;51.940;8.432;2024-03-22T01:40:21;38.83;;;14.20;;
20449;SDS011;10384;51.940;8.432;2024-03-22T01:42:47;42.67;;;14.13;;
20449;SDS011;10384;51.940;8.432;2024-03-22T01:45:13;39.43;;;14.27;;
20449;SDS011;10384;51.940;8.432;2024-03-22T01:47:40;39.67;;;14.57;;
20449;SDS011;10384;51.940;8.432;2024-03-22T01:50:06;40.00;;;14.43;;
20449;SDS011;10384;51.940;8.432;2024-03-22T01:52:33;46.27;;;14.77;;
20449;SDS011;10384;51.940;8.432;2024-03-22T01:54:59;42.67;;;14.50;;
20449;SDS011;10384;51.940;8.432;2024-03-22T01:57:25;37.70;;;14.07;;
20449;SDS011;10384;51.940;8.432;2024-03-22T01:59:51;39.57;;;14.27;;
20449;SDS011;10384;51.940;8.432;2024-03-22T02:02:19;41.43;;;13.77;;
20449;SDS011;10384;51.940;8.432;2024-03-22T02:04:45;40.13;;;13.47;;
20449;SDS011;10384;51.940;8.432;2024-03-22T02:07:11;40.20;;;14.53;;
20449;SDS011;10384;51.940;8.432;2024-03-22T02:09:37;40.63;;;14.30;;
20449;SDS011;10384;51.940;8.432;2024-03-22T02:12:04;45.17;;;14.10;;
20449;SDS011;10384;51.940;8.432;2024-03-22T02:14:30;43.03;;;14.40;;
20449;SDS011;10384;51.940;8.432;2024-03-22T02:16:56;43.43;;;14.43;;
20449;SDS011;10384;51.940;8.432;2024-03-22T02:19:22;40.40;;;13.67;;
20449;SDS011;10384;51.940;8.432;2024-03-22T02:21:48;41.27;;;15.80;;
20449;SDS011;10384;51.940;8.432;2024-03-22T02:24:14;44.97;;;14.90;;
20449;SDS011;10384;51.940;8.432;2024-03-22T02:26:40;44.20;;;14.37;;
20449;SDS011;10384;51.940;8.432;2024-03-22T02:29:06;41.67;;;14.67;;
20449;SDS011;10384;51.940;8.432;2024-03-22T02:31:32;43.07;;;13.97;;
20449;SDS011;10384;51.940;8.432;2024-03-22T02:33:58;40.63;;;13.73;;
20449;SDS011;10384;51.940;8.432;2024-03-22T02:36:24;42.70;;;13.77;;
20449;SDS011;10384;51.940;8.432;2024-03-22T02:38:50;49.77;;;15.67;;
20449;SDS011;10384;51.940;8.432;2024-03-22T02:41:16;41.40;;;14.33;;
20449;SDS011;10384;51.940;8.432;2024-03-22T02:43:42;40.90;;;14.03;;
20449;SDS011;10384;51.940;8.432;2024-03-22T02:46:08;42.53;;;14.33;;
20449;SDS011;10384;51.940;8.432;2024-03-22T02:48:34;40.03;;;13.40;;
20449;SDS011;10384;51.940;8.432;2024-03-22T02:51:00;43.17;;;15.17;;
20449;SDS011;10384;51.940;8.432;2024-03-22T02:53:26;44.60;;;13.87;;
20449;SDS011;10384;51.940;8.432;2024-03-22T02:55:52;45.87;;;14.97;;
20449;SDS011;10384;51.940;8.432;2024-03-22T02:58:20;44.80;;;14.47;;
20449;SDS011;10384;51.940;8.432;2024-03-22T03:00:47;44.07;;;14.90;;
20449;SDS011;10384;51.940;8.432;2024-03-22T03:03:13;45.63;;;14.77;;
20449;SDS011;10384;51.940;8.432;2024-03-22T03:05:38;45.53;;;14.93;;
20449;SDS011;10384;51.940;8.432;2024-03-22T03:08:06;49.97;;;14.73;;
20449;SDS011;10384;51.940;8.432;2024-03-22T03:10:32;40.07;;;13.27;;
20449;SDS011;10384;51.940;8.432;2024-03-22T03:12:58;37.47;;;13.13;;
20449;SDS011;10384;51.940;8.432;2024-03-22T03:15:24;35.33;;;13.50;;
20449;SDS011;10384;51.940;8.432;2024-03-22T03:17:50;39.73;;;13.80;;
20449;SDS011;10384;51.940;8.432;2024-03-22T03:20:16;40.63;;;14.20;;
20449;SDS011;10384;51.940;8.432;2024-03-22T03:22:42;47.90;;;14.27;;
20449;SDS011;10384;51.940;8.432;2024-03-22T03:25:08;45.00;;;14.23;;
20449;SDS011;10384;51.940;8.432;2024-03-22T03:27:34;43.63;;;13.50;;
20449;SDS011;10384;51.940;8.432;2024-03-22T03:30:01;39.27;;;13.03;;
20449;SDS011;10384;51.940;8.432;2024-03-22T03:32:27;38.90;;;14.37;;
20449;SDS011;10384;51.940;8.432;2024-03-22T03:34:53;44.47;;;14.43;;
20449;SDS011;10384;51.940;8.432;2024-03-22T03:37:19;38.30;;;13.00;;
20449;SDS011;10384;51.940;8.432;2024-03-22T03:39:45;39.77;;;13.93;;
20449;SDS011;10384;51.940;8.432;2024-03-22T03:42:11;42.13;;;13.90;;
20449;SDS011;10384;51.940;8.432;2024-03-22T03:44:37;39.23;;;13.53;;
20449;SDS011;10384;51.940;8.432;2024-03-22T03:47:03;40.13;;;14.00;;
20449;SDS011;10384;51.940;8.432;2024-03-22T03:49:29;44.57;;;14.30;;
20449;SDS011;10384;51.940;8.432;2024-03-22T03:51:55;40.23;;;13.03;;
20449;SDS011;10384;51.940;8.432;2024-03-22T03:54:21;39.53;;;13.07;;
20449;SDS011;10384;51.940;8.432;2024-03-22T03:56:47;46.70;;;14.57;;
20449;SDS011;10384;51.940;8.432;2024-03-22T03:59:13;41.57;;;13.60;;
20449;SDS011;10384;51.940;8.432;2024-03-22T04:01:39;39.07;;;13.43;;
20449;SDS011;10384;51.940;8.432;2024-03-22T04:04:05;38.40;;;14.60;;
20449;SDS011;10384;51.940;8.432;2024-03-22T04:06:31;42.37;;;13.77;;
20449;SDS011;10384;51.940;8.432;2024-03-22T04:08:57;34.77;;;12.07;;
20449;SDS011;10384;51.940;8.432;2024-03-22T04:11:24;43.53;;;14.33;;
20449;SDS011;10384;51.940;8.432;2024-03-22T04:13:50;34.43;;;13.53;;
20449;SDS011;10384;51.940;8.432;2024-03-22T04:16:16;37.93;;;13.07;;
20449;SDS011;10384;51.940;8.432;2024-03-22T04:18:42;38.80;;;12.93;;
20449;SDS011;10384;51.940;8.432;2024-03-22T04:21:08;36.47;;;12.83;;
20449;SDS011;10384;51.940;8.432;2024-03-22T04:23:34;37.90;;;13.90;;
20449;SDS011;10384;51.940;8.432;2024-03-22T04:26:00;42.60;;;13.50;;
20449;SDS011;10384;51.940;8.432;2024-03-22T04:28:27;37.37;;;13.43;;
20449;SDS011;10384;51.940;8.432;2024-03-22T04:30:54;35.73;;;13.17;;
20449;SDS011;10384;51.940;8.432;2024-03-22T04:33:20;38.83;;;12.37;;
20449;SDS011;10384;51.940;8.432;2024-03-22T04:35:46;38.73;;;14.03;;
20449;SDS011;10384;51.940;8.432;2024-03-22T04:38:12;38.17;;;13.00;;
20449;SDS011;10384;51.940;8.432;2024-03-22T04:40:39;36.87;;;12.33;;
20449;SDS011;10384;51.940;8.432;2024-03-22T04:43:05;35.23;;;11.87;;
20449;SDS011;10384;51.940;8.432;2024-03-22T04:45:31;33.87;;;11.77;;
20449;SDS011;10384;51.940;8.432;2024-03-22T04:47:57;36.27;;;12.53;;
20449;SDS011;10384;51.940;8.432;2024-03-22T04:50:23;40.13;;;12.90;;
20449;SDS011;10384;51.940;8.432;2024-03-22T04:52:49;37.23;;;12.50;;
20449;SDS011;10384;51.940;8.432;2024-03-22T04:55:15;37.97;;;12.73;;
20449;SDS011;10384;51.940;8.432;2024-03-22T04:57:41;41.00;;;13.57;;
20449;SDS011;10384;51.940;8.432;2024-03-22T05:00:07;33.27;;;11.97;;
20449;SDS011;10384;51.940;8.432;2024-03-22T05:02:34;35.50;;;12.47;;
20449;SDS011;10384;51.940;8.432;2024-03-22T05:05:00;39.37;;;12.20;;
20449;SDS011;10384;51.940;8.432;2024-03-22T05:07:26;39.23;;;12.97;;
20449;SDS011;10384;51.940;8.432;2024-03-22T05:09:52;38.27;;;12.47;;
20449;SDS011;10384;51.940;8.432;2024-03-22T05:12:18;41.07;;;13.00;;
20449;SDS011;10384;51.940;8.432;2024-03-22T05:14:44;38.40;;;12.23;;
20449;SDS011;10384;51.940;8.432;2024-03-22T05:17:10;34.87;;;11.63;;
20449;SDS011;10384;51.940;8.432;2024-03-22T05:19:36;41.60;;;12.30;;
20449;SDS011;10384;51.940;8.432;2024-03-22T05:22:02;35.17;;;12.10;;
20449;SDS011;10384;51.940;8.432;2024-03-22T05:24:28;34.40;;;11.83;;
20449;SDS011;10384;51.940;8.432;2024-03-22T05:26:54;35.63;;;11.77;;
20449;SDS011;10384;51.940;8.432;2024-03-22T05:29:20;35.07;;;11.87;;
20449;SDS011;10384;51.940;8.432;2024-03-22T05:31:47;40.60;;;12.70;;
20449;SDS011;10384;51.940;8.432;2024-03-22T05:34:14;34.80;;;12.33;;
20449;SDS011;10384;51.940;8.432;2024-03-22T05:36:41;37.37;;;12.43;;
20449;SDS011;10384;51.940;8.432;2024-03-22T05:39:07;31.53;;;11.80;;
20449;SDS011;10384;51.940;8.432;2024-03-22T05:41:33;37.27;;;11.13;;
20449;SDS011;10384;51.940;8.432;2024-03-22T05:43:59;38.37;;;12.13;;
20449;SDS011;10384;51.940;8.432;2024-03-22T05:46:25;32.37;;;11.60;;
20449;SDS011;10384;51.940;8.432;2024-03-22T05:48:51;41.77;;;11.80;;
20449;SDS011;10384;51.940;8.432;2024-03-22T05:51:17;32.30;;;11.00;;
20449;SDS011;10384;51.940;8.432;2024-03-22T05:53:43;30.90;;;10.83;;
20449;SDS011;10384;51.940;8.432;2024-03-22T05:56:09;34.17;;;11.83;;
20449;SDS011;10384;51.940;8.432;2024-03-22T05:58:35;35.77;;;11.50;;
20449;SDS011;10384;51.940;8.432;2024-03-22T06:01:01;40.03;;;11.97;;
20449;SDS011;10384;51.940;8.432;2024-03-22T06:03:30;31.10;;;10.87;;
20449;SDS011;10384;51.940;8.432;2024-03-22T06:05:58;30.83;;;10.53;;
20449;SDS011;10384;51.940;8.432;2024-03-22T06:08:25;35.83;;;11.23;;
20449;SDS011;10384;51.940;8.432;2024-03-22T06:10:54;34.70;;;13.50;;
20449;SDS011;10384;51.940;8.432;2024-03-22T06:13:23;35.00;;;11.40;;
20449;SDS011;10384;51.940;8.432;2024-03-22T06:15:49;38.00;;;12.07;;
20449;SDS011;10384;51.940;8.432;2024-03-22T06:18:16;33.73;;;12.07;;
20449;SDS011;10384;51.940;8.432;2024-03-22T06:20:42;33.93;;;12.27;;
20449;SDS011;10384;51.940;8.432;2024-03-22T06:23:08;37.70;;;12.03;;
20449;SDS011;10384;51.940;8.432;2024-03-22T06:25:34;32.90;;;12.03;;
20449;SDS011;10384;51.940;8.432;2024-03-22T06:28:00;35.47;;;11.43;;
20449;SDS011;10384;51.940;8.432;2024-03-22T06:30:26;40.20;;;13.20;;
20449;SDS011;10384;51.940;8.432;2024-03-22T06:32:53;32.67;;;12.27;;
20449;SDS011;10384;51.940;8.432;2024-03-22T06:35:20;33.43;;;11.73;;
20449;SDS011;10384;51.940;8.432;2024-03-22T06:37:46;32.27;;;11.90;;
20449;SDS011;10384;51.940;8.432;2024-03-22T06:40:13;32.93;;;11.97;;
20449;SDS011;10384;51.940;8.432;2024-03-22T06:42:39;33.33;;;11.37;;
20449;SDS011;10384;51.940;8.432;2024-03-22T06:45:05;29.30;;;11.87;;
20449;SDS011;10384;51.940;8.432;2024-03-22T06:47:31;33.23;;;12.13;;
20449;SDS011;10384;51.940;8.432;2024-03-22T06:49:57;29.47;;;11.13;;
20449;SDS011;10384;51.940;8.432;2024-03-22T06:52:23;32.27;;;11.17;;
20449;SDS011;10384;51.940;8.432;2024-03-22T06:54:49;32.00;;;11.30;;
20449;SDS011;10384;51.940;8.432;2024-03-22T06:57:15;32.73;;;12.13;;
20449;SDS011;10384;51.940;8.432;2024-03-22T06:59:41;29.70;;;11.13;;
20449;SDS011;10384;51.940;8.432;2024-03-22T07:02:07;31.93;;;11.83;;
20449;SDS011;10384;51.940;8.432;2024-03-22T07:04:34;27.43;;;10.17;;
20449;SDS011;10384;51.940;8.432;2024-03-22T07:07:00;33.47;;;11.40;;
20449;SDS011;10384;51.940;8.432;2024-03-22T07:09:26;31.57;;;11.70;;
20449;SDS011;10384;51.940;8.432;2024-03-22T07:11:54;32.03;;;12.30;;
20449;SDS011;10384;51.940;8.432;2024-03-22T07:14:20;34.60;;;11.23;;
20449;SDS011;10384;51.940;8.432;2024-03-22T07:16:49;30.00;;;11.90;;
20449;SDS011;10384;51.940;8.432;2024-03-22T07:19:15;30.10;;;11.33;;
20449;SDS011;10384;51.940;8.432;2024-03-22T07:21:41;25.73;;;10.07;;
20449;SDS011;10384;51.940;8.432;2024-03-22T07:24:07;25.73;;;10.43;;
20449;SDS011;10384;51.940;8.432;2024-03-22T07:26:33;30.17;;;10.20;;
20449;SDS011;10384;51.940;8.432;2024-03-22T07:28:59;23.00;;;9.00;;
20449;SDS011;10384;51.940;8.432;2024-03-22T07:31:26;26.90;;;9.73;;
20449;SDS011;10384;51.940;8.432;2024-03-22T07:33:53;26.93;;;9.63;;
20449;SDS011;10384;51.940;8.432;2024-03-22T07:36:19;28.93;;;9.67;;
20449;SDS011;10384;51.940;8.432;2024-03-22T07:38:45;24.37;;;8.67;;
20449;SDS011;10384;51.940;8.432;2024-03-22T07:41:11;21.77;;;9.60;;
20449;SDS011;10384;51.940;8.432;2024-03-22T07:43:37;24.30;;;8.50;;
20449;SDS011;10384;51.940;8.432;2024-03-22T07:46:03;24.83;;;8.90;;
20449;SDS011;10384;51.940;8.432;2024-03-22T07:48:29;26.40;;;9.97;;
20449;SDS011;10384;51.940;8.432;2024-03-22T07:50:56;22.20;;;9.77;;
20449;SDS011;10384;51.940;8.432;2024-03-22T07:53:22;24.80;;;8.93;;
20449;SDS011;10384;51.940;8.432;2024-03-22T07:55:48;24.13;;;10.23;;
20449;SDS011;10384;51.940;8.432;2024-03-22T07:58:14;24.53;;;8.77;;
20449;SDS011;10384;51.940;8.432;2024-03-22T08:00:40;25.80;;;8.77;;
20449;SDS011;10384;51.940;8.432;2024-03-22T08:03:06;24.10;;;9.03;;
20449;SDS011;10384;51.940;8.432;2024-03-22T08:05:32;22.73;;;8.60;;
20449;SDS011;10384;51.940;8.432;2024-03-22T08:07:58;23.57;;;8.77;;
20449;SDS011;10384;51.940;8.432;2024-03-22T08:10:24;21.07;;;8.50;;
20449;SDS011;10384;51.940;8.432;2024-03-22T08:12:50;18.97;;;8.17;;
20449;SDS011;10384;51.940;8.432;2024-03-22T08:15:17;22.83;;;8.03;;
20449;SDS011;10384;51.940;8.432;2024-03-22T08:17:43;21.03;;;8.77;;
20449;SDS011;10384;51.940;8.432;2024-03-22T08:20:09;23.33;;;8.57;;
20449;SDS011;10384;51.940;8.432;2024-03-22T08:22:35;22.17;;;8.97;;
20449;SDS011;10384;51.940;8.432;2024-03-22T08:25:01;19.10;;;9.00;;
20449;SDS011;10384;51.940;8.432;2024-03-22T08:27:28;23.73;;;8.87;;
20449;SDS011;10384;51.940;8.432;2024-03-22T08:29:54;18.07;;;8.00;;
20449;SDS011;10384;51.940;8.432;2024-03-22T08:32:20;21.83;;;8.40;;
20449;SDS011;10384;51.940;8.432;2024-03-22T08:34:46;23.30;;;8.70;;
20449;SDS011;10384;51.940;8.432;2024-03-22T08:37:12;18.27;;;7.87;;
20449;SDS011;10384;51.940;8.432;2024-03-22T08:39:38;30.17;;;9.27;;
20449;SDS011;10384;51.940;8.432;2024-03-22T08:42:04;22.30;;;8.23;;
20449;SDS011;10384;51.940;8.432;2024-03-22T08:44:31;18.77;;;7.40;;
20449;SDS011;10384;51.940;8.432;2024-03-22T08:46:57;18.17;;;7.47;;
20449;SDS011;10384;51.940;8.432;2024-03-22T08:49:23;19.37;;;7.33;;
20449;SDS011;10384;51.940;8.432;2024-03-22T08:51:49;19.13;;;7.40;;
20449;SDS011;10384;51.940;8.432;2024-03-22T08:54:16;18.67;;;7.73;;
20449;SDS011;10384;51.940;8.432;2024-03-22T08:56:42;18.07;;;7.83;;
20449;SDS011;10384;51.940;8.432;2024-03-22T08:59:08;21.50;;;8.23;;
20449;SDS011;10384;51.940;8.432;2024-03-22T09:01:35;19.57;;;8.27;;
20449;SDS011;10384;51.940;8.432;2024-03-22T09:04:01;19.67;;;7.50;;
20449;SDS011;10384;51.940;8.432;2024-03-22T09:06:27;17.80;;;7.30;;
20449;SDS011;10384;51.940;8.432;2024-03-22T09:08:53;20.27;;;7.67;;
20449;SDS011;10384;51.940;8.432;2024-03-22T09:11:22;22.50;;;7.50;;
20449;SDS011;10384;51.940;8.432;2024-03-22T09:13:51;19.53;;;7.90;;
20449;SDS011;10384;51.940;8.432;2024-03-22T09:16:17;20.13;;;8.13;;
20449;SDS011;10384;51.940;8.432;2024-03-22T09:18:43;20.43;;;8.20;;
20449;SDS011;10384;51.940;8.432;2024-03-22T09:21:09;18.50;;;7.07;;
20449;SDS011;10384;51.940;8.432;2024-03-22T09:23:35;19.63;;;8.27;;
20449;SDS011;10384;51.940;8.432;2024-03-22T09:26:01;17.27;;;7.47;;
20449;SDS011;10384;51.940;8.432;2024-03-22T09:28:27;20.03;;;7.57;;
20449;SDS011;10384;51.940;8.432;2024-03-22T09:30:53;18.70;;;7.17;;
20449;SDS011;10384;51.940;8.432;2024-03-22T09:33:19;19.20;;;7.53;;
20449;SDS011;10384;51.940;8.432;2024-03-22T09:35:45;17.97;;;8.23;;
20449;SDS011;10384;51.940;8.432;2024-03-22T09:38:11;19.33;;;7.30;;
20449;SDS011;10384;51.940;8.432;2024-03-22T09:40:38;21.23;;;8.53;;
20449;SDS011;10384;51.940;8.432;2024-03-22T09:43:07;18.50;;;7.43;;
20449;SDS011;10384;51.940;8.432;2024-03-22T09:45:33;16.67;;;6.70;;
20449;SDS011;10384;51.940;8.432;2024-03-22T09:47:59;17.93;;;7.07;;
20449;SDS011;10384;51.940;8.432;2024-03-22T09:50:26;15.00;;;6.77;;
20449;SDS011;10384;51.940;8.432;2024-03-22T09:52:52;21.73;;;7.60;;
20449;SDS011;10384;51.940;8.432;2024-03-22T09:55:24;19.07;;;7.73;;
20449;SDS011;10384;51.940;8.432;2024-03-22T09:57:50;17.60;;;6.83;;
20449;SDS011;10384;51.940;8.432;2024-03-22T10:00:18;18.00;;;6.73;;
20449;SDS011;10384;51.940;8.432;2024-03-22T10:02:46;16.77;;;6.97;;
20449;SDS011;10384;51.940;8.432;2024-03-22T10:05:12;16.23;;;6.70;;
20449;SDS011;10384;51.940;8.432;2024-03-22T10:07:39;17.50;;;6.47;;
20449;SDS011;10384;51.940;8.432;2024-03-22T10:10:05;15.47;;;7.13;;
20449;SDS011;10384;51.940;8.432;2024-03-22T10:12:32;16.60;;;6.67;;
20449;SDS011;10384;51.940;8.432;2024-03-22T10:14:58;20.87;;;7.00;;
20449;SDS011;10384;51.940;8.432;2024-03-22T10:17:26;15.90;;;7.23;;
20449;SDS011;10384;51.940;8.432;2024-03-22T10:19:52;15.10;;;6.93;;
20449;SDS011;10384;51.940;8.432;2024-03-22T10:22:19;17.87;;;6.80;;
20449;SDS011;10384;51.940;8.432;2024-03-22T10:24:45;18.03;;;7.10;;
20449;SDS011;10384;51.940;8.432;2024-03-22T10:27:11;17.70;;;6.57;;
20449;SDS011;10384;51.940;8.432;2024-03-22T10:29:37;16.33;;;7.07;;
20449;SDS011;10384;51.940;8.432;2024-03-22T10:32:03;15.37;;;7.47;;
20449;SDS011;10384;51.940;8.432;2024-03-22T10:34:29;20.83;;;8.40;;
20449;SDS011;10384;51.940;8.432;2024-03-22T10:36:55;15.47;;;6.73;;
20449;SDS011;10384;51.940;8.432;2024-03-22T10:39:23;16.53;;;6.40;;
20449;SDS011;10384;51.940;8.432;2024-03-22T10:41:49;19.27;;;7.30;;
20449;SDS011;10384;51.940;8.432;2024-03-22T10:44:15;18.67;;;7.27;;
20449;SDS011;10384;51.940;8.432;2024-03-22T10:46:43;14.67;;;7.17;;
20449;SDS011;10384;51.940;8.432;2024-03-22T10:49:10;19.83;;;6.93;;
20449;SDS011;10384;51.940;8.432;2024-03-22T10:51:39;19.63;;;7.17;;
20449;SDS011;10384;51.940;8.432;2024-03-22T10:54:05;20.00;;;6.77;;
20449;SDS011;10384;51.940;8.432;2024-03-22T10:56:32;19.97;;;8.00;;
20449;SDS011;10384;51.940;8.432;2024-03-22T10:59:02;18.23;;;6.70;;
20449;SDS011;10384;51.940;8.432;2024-03-22T11:01:29;13.83;;;6.47;;
20449;SDS011;10384;51.940;8.432;2024-03-22T11:04:05;19.63;;;6.90;;
20449;SDS011;10384;51.940;8.432;2024-03-22T11:06:37;16.87;;;6.93;;
20449;SDS011;10384;51.940;8.432;2024-03-22T11:09:03;16.63;;;6.30;;
20449;SDS011;10384;51.940;8.432;2024-03-22T11:11:29;15.13;;;7.03;;
20449;SDS011;10384;51.940;8.432;2024-03-22T11:13:56;16.20;;;6.00;;
20449;SDS011;10384;51.940;8.432;2024-03-22T11:16:22;15.77;;;6.50;;
20449;SDS011;10384;51.940;8.432;2024-03-22T11:18:49;19.47;;;7.63;;
20449;SDS011;10384;51.940;8.432;2024-03-22T11:21:15;20.23;;;7.47;;
20449;SDS011;10384;51.940;8.432;2024-03-22T11:23:44;17.07;;;6.30;;
20449;SDS011;10384;51.940;8.432;2024-03-22T11:26:10;20.40;;;6.67;;
20449;SDS011;10384;51.940;8.432;2024-03-22T11:28:37;17.63;;;7.33;;
20449;SDS011;10384;51.940;8.432;2024-03-22T11:31:03;18.03;;;7.17;;
20449;SDS011;10384;51.940;8.432;2024-03-22T11:33:32;22.17;;;7.27;;
20449;SDS011;10384;51.940;8.432;2024-03-22T11:35:58;19.97;;;7.27;;
20449;SDS011;10384;51.940;8.432;2024-03-22T11:38:29;20.93;;;8.07;;
20449;SDS011;10384;51.940;8.432;2024-03-22T11:40:55;16.13;;;7.47;;
20449;SDS011;10384;51.940;8.432;2024-03-22T11:43:23;16.80;;;7.47;;
20449;SDS011;10384;51.940;8.432;2024-03-22T11:45:49;16.13;;;6.87;;
20449;SDS011;10384;51.940;8.432;2024-03-22T11:48:15;16.93;;;7.07;;
20449;SDS011;10384;51.940;8.432;2024-03-22T11:50:42;20.93;;;7.30;;
20449;SDS011;10384;51.940;8.432;2024-03-22T11:53:08;14.17;;;6.50;;
20449;SDS011;10384;51.940;8.432;2024-03-22T11:55:37;16.03;;;7.20;;
20449;SDS011;10384;51.940;8.432;2024-03-22T11:58:03;16.00;;;6.93;;
20449;SDS011;10384;51.940;8.432;2024-03-22T12:00:29;24.20;;;8.57;;
20449;SDS011;10384;51.940;8.432;2024-03-22T12:02:55;20.70;;;7.60;;
20449;SDS011;10384;51.940;8.432;2024-03-22T12:05:21;17.87;;;7.80;;
20449;SDS011;10384;51.940;8.432;2024-03-22T12:07:47;20.60;;;8.63;;
20449;SDS011;10384;51.940;8.432;2024-03-22T12:10:13;21.37;;;8.17;;
20449;SDS011;10384;51.940;8.432;2024-03-22T12:12:39;17.17;;;8.40;;
20449;SDS011;10384;51.940;8.432;2024-03-22T12:15:05;22.33;;;9.33;;
20449;SDS011;10384;51.940;8.432;2024-03-22T12:17:32;18.00;;;8.40;;
20449;SDS011;10384;51.940;8.432;2024-03-22T12:20:01;23.60;;;9.07;;
20449;SDS011;10384;51.940;8.432;2024-03-22T12:22:28;20.33;;;8.53;;
20449;SDS011;10384;51.940;8.432;2024-03-22T12:24:54;20.30;;;9.60;;
20449;SDS011;10384;51.940;8.432;2024-03-22T12:27:20;19.17;;;8.80;;
20449;SDS011;10384;51.940;8.432;2024-03-22T12:29:46;22.70;;;9.50;;
20449;SDS011;10384;51.940;8.432;2024-03-22T12:32:12;21.27;;;9.47;;
20449;SDS011;10384;51.940;8.432;2024-03-22T12:34:38;25.70;;;10.10;;
20449;SDS011;10384;51.940;8.432;2024-03-22T12:37:04;23.30;;;9.43;;
20449;SDS011;10384;51.940;8.432;2024-03-22T12:39:30;21.73;;;9.70;;
20449;SDS011;10384;51.940;8.432;2024-03-22T12:41:57;22.60;;;10.00;;
20449;SDS011;10384;51.940;8.432;2024-03-22T12:44:23;22.57;;;9.93;;
20449;SDS011;10384;51.940;8.432;2024-03-22T12:46:49;22.73;;;10.10;;
20449;SDS011;10384;51.940;8.432;2024-03-22T12:49:16;20.83;;;9.63;;
20449;SDS011;10384;51.940;8.432;2024-03-22T12:51:42;18.80;;;8.87;;
20449;SDS011;10384;51.940;8.432;2024-03-22T12:54:08;21.73;;;9.47;;
20449;SDS011;10384;51.940;8.432;2024-03-22T12:56:34;22.03;;;9.17;;
20449;SDS011;10384;51.940;8.432;2024-03-22T12:59:02;21.70;;;9.57;;
20449;SDS011;10384;51.940;8.432;2024-03-22T13:01:27;22.33;;;9.47;;
20449;SDS011;10384;51.940;8.432;2024-03-22T13:03:54;21.13;;;9.43;;
20449;SDS011;10384;51.940;8.432;2024-03-22T13:06:20;24.80;;;9.23;;
20449;SDS011;10384;51.940;8.432;2024-03-22T13:08:46;21.40;;;9.30;;
20449;SDS011;10384;51.940;8.432;2024-03-22T13:11:12;23.43;;;10.10;;
20449;SDS011;10384;51.940;8.432;2024-03-22T13:13:39;25.60;;;10.00;;
20449;SDS011;10384;51.940;8.432;2024-03-22T13:16:05;26.37;;;9.40;;
20449;SDS011;10384;51.940;8.432;2024-03-22T13:18:32;26.00;;;9.83;;
20449;SDS011;10384;51.940;8.432;2024-03-22T13:20:58;21.77;;;9.57;;
20449;SDS011;10384;51.940;8.432;2024-03-22T13:23:24;21.87;;;9.53;;
20449;SDS011;10384;51.940;8.432;2024-03-22T13:25:50;23.27;;;9.40;;
20449;SDS011;10384;51.940;8.432;2024-03-22T13:28:16;22.43;;;9.50;;
20449;SDS011;10384;51.940;8.432;2024-03-22T13:30:46;24.17;;;9.37;;
20449;SDS011;10384;51.940;8.432;2024-03-22T13:33:12;24.20;;;10.00;;
20449;SDS011;10384;51.940;8.432;2024-03-22T13:35:38;24.63;;;9.40;;
20449;SDS011;10384;51.940;8.432;2024-03-22T13:38:06;24.03;;;9.80;;
20449;SDS011;10384;51.940;8.432;2024-03-22T13:40:38;24.10;;;10.03;;
20449;SDS011;10384;51.940;8.432;2024-03-22T13:43:05;25.57;;;10.20;;
20449;SDS011;10384;51.940;8.432;2024-03-22T13:45:31;27.17;;;10.57;;
20449;SDS011;10384;51.940;8.432;2024-03-22T13:47:58;27.33;;;11.30;;
20449;SDS011;10384;51.940;8.432;2024-03-22T13:50:24;29.03;;;11.10;;
20449;SDS011;10384;51.940;8.432;2024-03-22T13:52:49;34.10;;;10.90;;
20449;SDS011;10384;51.940;8.432;2024-03-22T13:55:16;26.67;;;11.13;;
20449;SDS011;10384;51.940;8.432;2024-03-22T13:57:41;26.63;;;11.30;;
20449;SDS011;10384;51.940;8.432;2024-03-22T14:00:08;26.73;;;10.33;;
20449;SDS011;10384;51.940;8.432;2024-03-22T14:02:39;24.97;;;10.43;;
20449;SDS011;10384;51.940;8.432;2024-03-22T14:05:05;27.13;;;11.00;;
20449;SDS011;10384;51.940;8.432;2024-03-22T14:07:33;26.93;;;10.73;;
20449;SDS011;10384;51.940;8.432;2024-03-22T14:09:59;35.87;;;11.30;;
20449;SDS011;10384;51.940;8.432;2024-03-22T14:12:25;26.27;;;11.20;;
20449;SDS011;10384;51.940;8.432;2024-03-22T14:14:51;28.70;;;11.00;;
20449;SDS011;10384;51.940;8.432;2024-03-22T14:17:17;29.03;;;10.83;;
20449;SDS011;10384;51.940;8.432;2024-03-22T14:19:43;26.73;;;11.83;;